Time;durP1;ratioP1;P1;durP2;ratioP2;P2;SDS_P1;SDS_P2;PMS_P1;PMS_P2;Temp;Humidity;BMP_temperature;BMP_pressure;BME280_temperature;BME280_humidity;BME280_pressure;Samples;Min_cycle;Max_cycle;Signal;HPM_P1;HPM_P2
2022/11/17 00:02:13;;;;;;;66.43;12.10;;;;;;;9.31;100.00;93180.44;5046155;28;20123;-89
2022/11/17 00:04:39;;;;;;;181.80;18.50;;;;;;;9.09;100.00;93173.22;5046112;28;20028;-88
2022/11/17 00:07:04;;;;;;;198.95;16.00;;;;;;;9.02;100.00;93169.16;5062696;28;20035;-88
2022/11/17 00:09:29;;;;;;;80.07;11.95;;;;;;;9.36;100.00;93169.13;5062509;28;20051;-89
2022/11/17 00:14:40;;;;;;;296.80;18.10;;;;;;;9.05;100.00;93165.97;5065140;28;20352;-89
2022/11/17 00:17:09;;;;;;;73.38;11.25;;;;;;;9.30;100.00;93161.38;5062408;28;20032;-89
2022/11/17 00:22:19;;;;;;;274.77;21.17;;;;;;;9.38;100.00;93162.53;5064575;28;20039;-89
2022/11/17 00:24:44;;;;;;;20.50;10.65;;;;;;;9.57;100.00;93154.63;5062180;28;20421;-89
2022/11/17 00:27:10;;;;;;;26.50;11.60;;;;;;;9.61;100.00;93149.56;5062207;28;20021;-89
2022/11/17 00:29:36;;;;;;;814.00;48.92;;;;;;;9.40;100.00;93149.97;5045538;28;20025;-89
2022/11/17 00:34:45;;;;;;;227.60;18.42;;;;;;;9.10;100.00;93138.97;5064743;28;20039;-89
2022/11/17 00:37:11;;;;;;;247.30;16.98;;;;;;;9.16;100.00;93140.44;5045510;28;20032;-89
2022/11/17 00:39:37;;;;;;;300.20;17.75;;;;;;;9.06;100.00;93140.63;5079719;28;20029;-89
2022/11/17 00:42:03;;;;;;;29.35;9.63;;;;;;;9.33;100.00;93136.50;5061860;28;20028;-89
2022/11/17 00:44:29;;;;;;;116.70;13.27;;;;;;;9.03;100.00;93128.13;5061821;28;20036;-88
2022/11/17 00:46:54;;;;;;;48.70;8.85;;;;;;;9.03;100.00;93122.88;5045454;28;20504;-89
2022/11/17 00:49:23;;;;;;;35.13;8.55;;;;;;;9.17;100.00;93121.06;5061697;28;20035;-88
2022/11/17 00:51:49;;;;;;;65.65;8.73;;;;;;;8.59;100.00;93115.22;5062182;28;20311;-89
2022/11/17 00:54:15;;;;;;;12.98;6.47;;;;;;;8.91;100.00;93113.69;5061659;28;20036;-88
2022/11/17 00:56:40;;;;;;;11.73;6.68;;;;;;;8.90;100.00;93109.53;5061372;28;20062;-88
2022/11/17 00:59:07;;;;;;;29.20;8.13;;;;;;;8.78;100.00;93117.03;5079565;28;20039;-89
2022/11/17 01:01:32;;;;;;;196.48;14.57;;;;;;;7.79;100.00;93115.00;5044534;28;20090;-88
2022/11/17 01:04:04;;;;;;;18.60;8.77;;;;;;;8.13;100.00;93105.44;5061525;28;20024;-88
2022/11/17 01:06:32;;;;;;;43.83;7.43;;;;;;;8.30;100.00;93107.56;5061570;28;20105;-89
2022/11/17 01:09:01;;;;;;;12.23;7.10;;;;;;;8.56;100.00;93110.59;5060936;28;20036;-89
2022/11/17 01:11:27;;;;;;;33.45;8.77;;;;;;;8.52;100.00;93107.00;5061178;28;20051;-88
2022/11/17 01:13:55;;;;;;;94.93;10.02;;;;;;;8.55;100.00;93113.50;5044853;28;20033;-88
2022/11/17 01:16:21;;;;;;;23.95;8.05;;;;;;;8.53;100.00;93115.59;5061455;28;20028;-89
2022/11/17 01:18:55;;;;;;;26.85;5.45;;;;;;;8.57;100.00;93109.53;5239891;22;20036;-90
2022/11/17 01:21:25;;;;;;;100.00;8.77;;;;;;;8.13;100.00;93116.66;5103079;28;20027;-91
2022/11/17 01:24:02;;;;;;;;;;;;;;;;;;;;;
2022/11/17 01:26:34;;;;;;;206.05;14.77;;;;;;;7.17;100.00;93126.91;5102875;28;20045;-91
2022/11/17 01:29:33;;;;;;;;;;;;;;;;;;;;;
2022/11/17 01:31:59;;;;;;;31.20;6.15;;;;;;;7.10;100.00;93123.06;5119320;28;20018;-92
2022/11/17 01:34:27;;;;;;;28.73;6.57;;;;;;;7.09;100.00;93127.50;5084097;28;20114;-90
2022/11/17 01:39:43;;;;;;;73.40;9.55;;;;;;;6.64;100.00;93117.19;5103845;28;20130;-92
2022/11/17 01:42:13;;;;;;;27.45;5.82;;;;;;;7.19;100.00;93113.59;5085224;28;20382;-91
2022/11/17 01:44:46;;;;;;;67.07;8.27;;;;;;;7.33;100.00;93106.66;5084788;28;20022;-92
2022/11/17 01:47:32;;;;;;;;;;;;;;;;;;;;;
2022/11/17 01:50:03;;;;;;;118.72;10.48;;;;;;;7.56;100.00;93112.16;5102353;28;20355;-92
2022/11/17 01:52:33;;;;;;;68.72;8.73;;;;;;;7.64;100.00;93103.72;5101158;28;20427;-92
2022/11/17 01:55:01;;;;;;;462.42;28.35;;;;;;;7.28;100.00;93101.53;5101197;28;20080;-92
2022/11/17 01:57:34;;;;;;;372.90;26.55;;;;;;;7.06;100.00;93109.81;5084456;28;20066;-92
2022/11/17 02:00:13;;;;;;;;;;;;;;;;;;;;;
2022/11/17 02:02:40;;;;;;;54.58;7.72;;;;;;;7.06;100.00;93105.38;5102058;28;20454;-91
2022/11/17 02:05:24;;;;;;;80.90;9.32;;;;;;;7.02;100.00;93101.00;5084022;28;20027;-92
2022/11/17 02:07:53;;;;;;;9.15;5.03;;;;;;;7.31;100.00;93103.56;5084339;28;20027;-92
2022/11/17 02:10:29;;;;;;;;;;;;;;;;;;;;;
2022/11/17 02:12:54;;;;;;;9.32;4.68;;;;;;;7.01;100.00;93102.03;5101369;28;20026;-92
2022/11/17 02:15:21;;;;;;;11.30;4.63;;;;;;;7.64;100.00;93097.72;5083379;28;20134;-93
2022/11/17 02:17:56;;;;;;;;;;;;;;;;;;;;;
2022/11/17 02:20:50;;;;;;;;;;;;;;;;;;;;;
2022/11/17 02:23:28;;;;;;;8.13;4.65;;;;;;;7.99;100.00;93090.50;5118390;28;20026;-90
2022/11/17 02:26:09;;;;;;;;;;;;;;;;;;;;;
2022/11/17 02:28:39;;;;;;;6.63;3.75;;;;;;;7.98;100.00;93078.50;5101554;28;20015;-90
2022/11/17 02:31:23;;;;;;;10.43;5.10;;;;;;;7.95;100.00;93080.91;5083544;28;20031;-91
2022/11/17 02:34:01;;;;;;;5.63;3.53;;;;;;;7.99;100.00;93085.28;5100120;28;20039;-92
2022/11/17 02:36:52;;;;;;;7.80;3.70;;;;;;;7.96;100.00;93078.03;5083581;28;20481;-91
2022/11/17 02:39:49;;;;;;;9.07;3.90;;;;;;;7.93;100.00;93078.59;5084441;28;20047;-91
2022/11/17 02:45:17;;;;;;;10.75;2.95;;;;;;;8.12;100.00;93072.59;5102511;28;20419;-91
2022/11/17 02:47:50;;;;;;;5.45;2.58;;;;;;;8.12;100.00;93069.97;5082965;28;20436;-91
2022/11/17 02:50:29;;;;;;;4.57;2.85;;;;;;;8.17;100.00;93068.06;5083523;28;20028;-91
2022/11/17 02:52:55;;;;;;;4.63;2.58;;;;;;;8.04;100.00;93061.75;5084465;28;20175;-90
2022/11/17 02:55:30;;;;;;;;;;;;;;;;;;;;;
2022/11/17 02:57:56;;;;;;;4.90;2.42;;;;;;;7.86;100.00;93063.28;5101101;28;20020;-91
2022/11/17 03:00:29;;;;;;;5.57;2.25;;;;;;;8.07;100.00;93069.00;5083108;28;20407;-91
2022/11/17 03:03:23;;;;;;;7.47;2.45;;;;;;;7.87;100.00;93071.88;5100534;28;20031;-91
2022/11/17 03:06:03;;;;;;;9.70;2.65;;;;;;;8.07;100.00;93065.59;5100848;28;20023;-91
2022/11/17 03:08:40;;;;;;;3.30;2.08;;;;;;;8.17;100.00;93068.06;5099894;28;20026;-92
2022/11/17 03:11:10;;;;;;;6.65;2.05;;;;;;;8.18;100.00;93069.63;5100081;28;20027;-92
2022/11/17 03:14:01;;;;;;;6.95;1.92;;;;;;;8.19;100.00;93065.19;5083279;28;20090;-92
2022/11/17 03:16:55;;;;;;;6.40;2.60;;;;;;;8.25;100.00;93071.09;5083686;28;20024;-92
2022/11/17 03:19:52;;;;;;;;;;;;;;;;;;;;;
2022/11/17 03:22:39;;;;;;;12.85;1.63;;;;;;;7.90;100.00;93064.28;5117448;28;20030;-91
2022/11/17 03:25:18;;;;;;;;;;;;;;;;;;;;;
2022/11/17 03:27:56;;;;;;;9.32;2.63;;;;;;;7.68;100.00;93062.22;5101378;28;20023;-91
2022/11/17 03:30:35;;;;;;;;;;;;;;;;;;;;;
2022/11/17 03:33:08;;;;;;;6.47;3.20;;;;;;;8.17;100.00;93067.28;5101166;28;20437;-93
2022/11/17 03:35:38;;;;;;;5.25;2.17;;;;;;;8.20;100.00;93058.91;5099451;28;20023;-91
2022/11/17 03:38:11;;;;;;;11.10;2.28;;;;;;;8.27;100.00;93069.00;5117065;28;20028;-91
2022/11/17 03:40:42;;;;;;;6.13;2.42;;;;;;;8.27;100.00;93069.00;5117202;28;20059;-92
2022/11/17 03:43:16;;;;;;;8.10;2.10;;;;;;;8.18;100.00;93074.09;5117218;28;20072;-91
2022/11/17 03:45:50;;;;;;;5.07;2.53;;;;;;;8.21;100.00;93069.06;5100044;28;20042;-92
2022/11/17 03:48:30;;;;;;;6.35;2.10;;;;;;;8.36;100.00;93075.09;5117044;28;20106;-90
2022/11/17 03:51:05;;;;;;;8.57;2.72;;;;;;;8.31;100.00;93081.16;5117039;28;20431;-91
2022/11/17 03:53:31;;;;;;;12.55;3.00;;;;;;;8.37;100.00;93086.31;5082657;28;20059;-92
2022/11/17 03:55:58;;;;;;;4.80;2.28;;;;;;;8.41;100.00;93095.13;5098895;28;20356;-92
2022/11/17 03:58:30;;;;;;;7.28;2.70;;;;;;;8.39;100.00;93092.03;5116827;28;20347;-91
2022/11/17 04:01:08;;;;;;;;;;;;;;;;;;;;;
2022/11/17 04:03:36;;;;;;;11.10;2.15;;;;;;;8.38;100.00;93087.88;5100363;28;20327;-90
2022/11/17 04:06:03;;;;;;;8.85;2.45;;;;;;;8.51;100.00;93078.56;5116812;28;20104;-91
2022/11/17 04:08:39;;;;;;;5.20;2.00;;;;;;;8.57;100.00;93088.63;5098663;28;20382;-90
2022/11/17 04:16:44;;;;;;;10.20;2.70;;;;;;;8.46;100.00;93095.03;5117065;28;20165;-92
2022/11/17 04:19:17;;;;;;;21.40;3.08;;;;;;;8.34;100.00;93092.88;5117017;28;20114;-92
2022/11/17 04:21:42;;;;;;;5.47;1.95;;;;;;;8.47;100.00;93094.00;5117238;28;20028;-93
2022/11/17 04:24:18;;;;;;;;;;;;;;;;;;;;;
2022/11/17 04:29:32;;;;;;;10.55;3.00;;;;;;;8.75;100.00;93086.25;5101773;28;20069;-92
2022/11/17 04:32:01;;;;;;;4.45;1.67;;;;;;;8.70;100.00;93081.13;5116923;28;20416;-94
2022/11/17 04:34:26;;;;;;;6.57;1.90;;;;;;;8.60;100.00;93079.47;5116981;28;20027;-93
2022/11/17 04:37:02;;;;;;;;;;;;;;;;;;;;;
2022/11/17 04:39:32;;;;;;;5.63;1.98;;;;;;;8.58;100.00;93087.56;5120633;28;20022;-92
2022/11/17 04:42:05;;;;;;;4.50;1.50;;;;;;;8.63;100.00;93090.13;5102910;28;20408;-95
2022/11/17 04:44:31;;;;;;;7.30;2.40;;;;;;;8.71;100.00;93093.91;5103618;28;20027;-93
2022/11/17 04:47:07;;;;;;;;;;;;;;;;;;;;;
2022/11/17 04:52:55;;;;;;;4.15;2.03;;;;;;;8.71;100.00;93114.81;5120464;28;20150;-93
2022/11/17 04:55:30;;;;;;;;;;;;;;;;;;;;;
2022/11/17 04:57:58;;;;;;;2.72;1.50;;;;;;;8.81;100.00;93133.97;5120349;28;20328;-93
2022/11/17 05:00:26;;;;;;;6.22;1.95;;;;;;;8.75;100.00;93128.03;5120473;28;20027;-93
2022/11/17 05:02:51;;;;;;;7.97;1.77;;;;;;;8.60;100.00;93127.22;5085446;28;20126;-93
2022/11/17 05:05:19;;;;;;;5.13;2.30;;;;;;;8.79;100.00;93136.88;5120187;28;20107;-93
2022/11/17 05:07:52;;;;;;;3.17;1.65;;;;;;;8.76;100.00;93127.78;5102121;28;20027;-94
2022/11/17 05:13:20;;;;;;;4.10;1.88;;;;;;;8.79;100.00;93131.66;5103362;28;20019;-95
2022/11/17 05:13:29;;;;;;;7.40;2.28;;;;;;;8.65;100.00;93133.44;5119758;28;20114;-94
2022/11/17 05:19:01;;;;;;;;;;;;;;;;;;;;;
2022/11/17 05:21:27;;;;;;;18.85;2.83;;;;;;;8.30;100.00;93113.53;5104799;28;20023;-94
2022/11/17 05:23:55;;;;;;;5.40;1.80;;;;;;;8.54;100.00;93115.31;5119774;28;20532;-93
2022/11/17 05:26:32;;;;;;;5.15;2.17;;;;;;;8.55;100.00;93119.47;5119802;28;20028;-94
2022/11/17 05:29:02;;;;;;;3.85;1.92;;;;;;;8.42;100.00;93105.28;5101875;28;20020;-93
2022/11/17 05:31:38;;;;;;;;;;;;;;;;;;;;;
2022/11/17 05:34:16;;;;;;;;;;;;;;;;;;;;;
2022/11/17 05:36:42;;;;;;;6.13;1.98;;;;;;;8.71;100.00;93111.41;5102939;28;20023;-93
2022/11/17 05:39:12;;;;;;;6.28;1.95;;;;;;;8.28;100.00;93104.47;5101624;28;20027;-94
2022/11/17 05:41:48;;;;;;;;;;;;;;;;;;;;;
2022/11/17 05:44:21;;;;;;;2.88;1.60;;;;;;;8.75;100.00;93118.38;5102846;28;20024;-92
2022/11/17 05:46:51;;;;;;;3.85;1.50;;;;;;;8.47;100.00;93109.66;5102267;28;20155;-93
2022/11/17 05:49:41;;;;;;;3.90;1.30;;;;;;;8.86;100.00;93105.16;5100380;28;20054;-90
2022/11/17 05:52:13;;;;;;;3.25;1.10;;;;;;;8.86;100.00;93105.94;5097419;28;20070;-91
2022/11/17 05:54:42;;;;;;;5.85;1.10;;;;;;;8.80;100.00;93088.00;5084955;28;20031;-92
2022/11/17 05:57:24;;;;;;;;;;;;;;;;;;;;;
2022/11/17 06:00:03;;;;;;;;;;;;;;;;;;;;;
2022/11/17 06:02:48;;;;;;;;;;;;;;;;;;;;;
2022/11/17 06:05:24;;;;;;;;;;;;;;;;;;;;;
2022/11/17 06:08:00;;;;;;;;;;;;;;;;;;;;;
2022/11/17 06:10:26;;;;;;;2.42;0.68;;;;;;;8.65;100.00;93086.44;5102104;28;20020;-89
2022/11/17 06:13:02;;;;;;;;;;;;;;;;;;;;;
2022/11/17 06:15:38;;;;;;;;;;;;;;;;;;;;;
2022/11/17 06:18:08;;;;;;;5.38;1.02;;;;;;;8.63;100.00;93090.13;5118595;28;20018;-93
2022/11/17 06:20:47;;;;;;;;;;;;;;;;;;;;;
2022/11/17 06:23:16;;;;;;;2.15;0.70;;;;;;;9.04;100.00;93086.03;5101934;28;20042;-92
2022/11/17 06:25:42;;;;;;;2.42;0.82;;;;;;;9.05;100.00;93090.19;5118571;28;20027;-92
2022/11/17 06:28:22;;;;;;;;;;;;;;;;;;;;;
2022/11/17 06:30:58;;;;;;;;;;;;;;;;;;;;;
2022/11/17 06:33:25;;;;;;;2.05;0.73;;;;;;;9.17;100.00;93097.56;5101606;28;20037;-90
2022/11/17 06:35:53;;;;;;;1.08;0.80;;;;;;;9.16;100.00;93103.09;5100244;28;20019;-89
2022/11/17 06:38:26;;;;;;;1.10;0.50;;;;;;;9.41;100.00;93101.84;5100215;28;20038;-89
2022/11/17 06:40:54;;;;;;;1.73;0.95;;;;;;;9.29;100.00;93104.94;5083840;28;20370;-89
2022/11/17 06:43:27;;;;;;;3.35;0.70;;;;;;;9.24;100.00;93105.00;5118079;28;20026;-89
2022/11/17 06:45:52;;;;;;;0.35;0.35;;;;;;;9.62;100.00;93096.22;5084203;28;20023;-89
2022/11/17 06:48:34;;;;;;;;;;;;;;;;;;;;;
2022/11/17 06:51:03;;;;;;;4.72;0.57;;;;;;;9.43;100.00;93098.94;5101469;28;20022;-89
2022/11/17 06:53:29;;;;;;;1.67;0.45;;;;;;;9.17;100.00;93099.41;5082852;28;20436;-88
2022/11/17 06:58:32;;;;;;;0.95;0.68;;;;;;;9.59;100.00;93096.78;5101331;28;20055;-88
2022/11/17 07:01:03;;;;;;;2.47;1.13;;;;;;;9.44;100.00;93080.34;5091455;28;20032;-89
2022/11/17 07:03:29;;;;;;;2.22;1.10;;;;;;;9.63;100.00;93076.84;5062827;28;20440;-88
2022/11/17 07:05:58;;;;;;;2.53;1.05;;;;;;;9.67;100.00;93067.34;5062618;28;20093;-88
2022/11/17 07:08:23;;;;;;;4.35;1.00;;;;;;;9.36;100.00;93044.44;5062813;28;20032;-89
2022/11/17 07:10:53;;;;;;;2.55;0.90;;;;;;;9.80;100.00;93060.53;5078786;28;20103;-88
2022/11/17 07:13:22;;;;;;;1.70;1.10;;;;;;;9.92;100.00;93067.09;5063418;28;20024;-89
2022/11/17 07:15:49;;;;;;;1.63;1.00;;;;;;;9.68;100.00;93057.66;5062708;28;20119;-88
2022/11/17 07:18:16;;;;;;;0.95;0.70;;;;;;;10.03;100.00;93055.34;5079224;28;20028;-88
2022/11/17 07:20:42;;;;;;;1.65;0.80;;;;;;;9.71;100.00;93050.00;5078590;28;20032;-88
2022/11/17 07:23:09;;;;;;;3.08;1.17;;;;;;;9.90;100.00;93049.09;5085912;28;20075;-89
2022/11/17 07:25:35;;;;;;;1.48;0.93;;;;;;;9.87;100.00;93054.91;5099734;28;20024;-89
2022/11/17 07:28:03;;;;;;;1.33;0.70;;;;;;;10.17;100.00;93050.84;5099370;28;20072;-88
2022/11/17 07:30:31;;;;;;;2.83;0.77;;;;;;;10.42;100.00;93053.19;5099107;28;20157;-89
2022/11/17 07:33:01;;;;;;;2.15;1.10;;;;;;;10.50;100.00;93049.88;5082887;28;20028;-87
2022/11/17 07:35:27;;;;;;;2.38;0.80;;;;;;;10.52;100.00;93024.16;5099815;28;20026;-89
2022/11/17 07:37:58;;;;;;;14.23;1.17;;;;;;;10.43;100.00;93045.06;5082784;28;20023;-88
2022/11/17 07:40:26;;;;;;;4.07;0.80;;;;;;;10.54;100.00;93063.91;5098741;28;20020;-89
2022/11/17 07:42:52;;;;;;;1.02;0.77;;;;;;;11.03;100.00;93047.50;5099152;28;20030;-88
2022/11/17 07:45:19;;;;;;;10.95;0.88;;;;;;;10.87;100.00;93047.16;5082236;28;20428;-88
2022/11/17 07:47:52;;;;;;;2.58;1.00;;;;;;;10.85;100.00;93049.31;5082724;28;20020;-83
2022/11/17 07:50:17;;;;;;;3.33;0.90;;;;;;;11.37;100.00;93038.25;5116304;28;20031;-82
2022/11/17 07:52:42;;;;;;;2.88;0.77;;;;;;;11.50;100.00;93038.44;5117013;28;20023;-82
2022/11/17 07:55:08;;;;;;;2.63;0.75;;;;;;;11.65;100.00;93040.63;5116618;28;20439;-83
2022/11/17 07:57:34;;;;;;;5.15;0.80;;;;;;;11.97;100.00;93046.53;5102110;28;20024;-82
2022/11/17 08:00:00;;;;;;;2.67;0.90;;;;;;;11.65;100.00;93052.94;5096451;28;20062;-82
2022/11/17 08:02:27;;;;;;;2.13;0.95;;;;;;;11.85;100.00;93056.84;5111887;28;20063;-82
2022/11/17 08:04:52;;;;;;;3.55;0.82;;;;;;;11.92;100.00;93051.94;5098928;28;20019;-82
2022/11/17 08:07:18;;;;;;;2.63;0.70;;;;;;;12.18;100.00;93059.06;5098843;28;20050;-82
2022/11/17 08:09:43;;;;;;;1.83;0.70;;;;;;;12.32;100.00;93072.03;5116717;28;20023;-82
2022/11/17 08:12:09;;;;;;;5.95;1.15;;;;;;;12.32;100.00;93079.13;5117463;28;20032;-83
2022/11/17 08:14:34;;;;;;;3.45;1.00;;;;;;;12.33;100.00;93085.94;5120719;28;20072;-83
2022/11/17 08:17:00;;;;;;;2.25;0.88;;;;;;;12.31;100.00;93081.00;5120704;28;20024;-83
2022/11/17 08:19:25;;;;;;;1.08;0.60;;;;;;;12.40;100.00;93087.00;5120279;28;20036;-82
2022/11/17 08:21:50;;;;;;;5.65;1.00;;;;;;;12.47;100.00;93097.06;5119910;28;20031;-83
2022/11/17 08:24:16;;;;;;;2.58;0.82;;;;;;;12.27;100.00;93093.97;5120416;28;20034;-82
2022/11/17 08:26:41;;;;;;;5.00;1.13;;;;;;;12.56;100.00;93092.56;5120465;28;20028;-82
2022/11/17 08:29:07;;;;;;;2.53;0.80;;;;;;;12.88;100.00;93100.28;5120460;28;20023;-83
2022/11/17 08:31:32;;;;;;;6.28;1.25;;;;;;;13.36;100.00;93093.19;5119259;28;20102;-82
2022/11/17 08:33:58;;;;;;;6.55;1.00;;;;;;;13.77;100.00;93091.00;5120216;28;20024;-82
2022/11/17 08:36:23;;;;;;;3.20;0.90;;;;;;;13.98;100.00;93104.19;5119893;28;20028;-82
2022/11/17 08:38:48;;;;;;;3.00;0.93;;;;;;;13.56;100.00;93102.25;5081837;28;20028;-83
2022/11/17 08:41:14;;;;;;;4.05;1.10;;;;;;;13.40;100.00;93107.22;5099275;28;20081;-84
2022/11/17 08:43:39;;;;;;;1.48;0.77;;;;;;;13.15;100.00;93114.88;5081685;28;20102;-85
2022/11/17 08:46:10;;;;;;;3.55;0.85;;;;;;;13.11;100.00;93123.72;5065189;28;20024;-84
2022/11/17 08:48:35;;;;;;;8.70;1.30;;;;;;;13.14;100.00;93123.09;5065286;28;20310;-87
2022/11/17 08:51:05;;;;;;;12.57;1.17;;;;;;;13.39;100.00;93112.81;5081390;28;20035;-88
2022/11/17 08:53:31;;;;;;;6.93;1.08;;;;;;;13.84;100.00;93122.09;5068891;28;20027;-88
2022/11/17 08:55:56;;;;;;;13.15;4.88;;;;;;;13.84;100.00;93125.50;5066502;28;20305;-88
2022/11/17 08:58:22;;;;;;;16.27;7.97;;;;;;;13.57;100.00;93122.22;5098866;28;20361;-88
2022/11/17 09:00:47;;;;;;;12.07;5.57;;;;;;;13.12;100.00;93130.50;5081459;28;20023;-88
2022/11/17 09:03:13;;;;;;;12.10;6.15;;;;;;;13.26;100.00;93127.72;5082075;28;20024;-87
2022/11/17 09:05:40;;;;;;;9.55;4.40;;;;;;;13.39;100.00;93124.09;5098057;28;20024;-87
2022/11/17 09:08:06;;;;;;;11.82;4.78;;;;;;;13.14;100.00;93128.38;5098663;28;20027;-88
2022/11/17 09:10:31;;;;;;;10.10;4.43;;;;;;;13.15;100.00;93127.28;5081219;28;20036;-87
2022/11/17 09:12:57;;;;;;;9.82;2.90;;;;;;;13.31;100.00;93124.91;5081674;28;20035;-88
2022/11/17 09:15:23;;;;;;;10.27;4.18;;;;;;;12.84;100.00;93117.75;5098406;28;20047;-88
2022/11/17 09:17:49;;;;;;;7.75;3.10;;;;;;;13.36;100.00;93123.97;5081630;28;20027;-87
2022/11/17 09:20:16;;;;;;;6.88;2.22;;;;;;;13.50;100.00;93124.56;5097702;28;20115;-88
2022/11/17 09:22:41;;;;;;;14.52;3.25;;;;;;;13.34;100.00;93139.28;5097698;28;20152;-88
2022/11/17 09:25:07;;;;;;;7.53;2.45;;;;;;;13.67;100.00;93144.78;5081211;28;20458;-88
2022/11/17 09:27:33;;;;;;;3.60;2.03;;;;;;;13.98;100.00;93146.31;5081040;28;20023;-88
2022/11/17 09:29:59;;;;;;;4.68;2.08;;;;;;;13.14;100.00;93142.28;5081454;28;20428;-89
2022/11/17 09:32:25;;;;;;;4.95;2.22;;;;;;;13.48;100.00;93147.00;5064211;28;20028;-88
2022/11/17 09:34:50;;;;;;;6.15;1.73;;;;;;;13.88;100.00;93141.41;5099006;28;20030;-88
2022/11/17 09:37:16;;;;;;;3.95;2.03;;;;;;;13.99;100.00;93145.22;5063991;28;20035;-88
2022/11/17 09:39:43;;;;;;;2.70;1.42;;;;;;;13.94;100.00;93153.31;5080876;28;20084;-88
2022/11/17 09:42:14;;;;;;;3.97;1.60;;;;;;;14.41;100.00;93144.50;5064264;28;20445;-89
2022/11/17 09:44:51;;;;;;;4.18;0.90;;;;;;;14.77;100.00;93137.13;5064515;28;20420;-89
2022/11/17 09:47:32;;;;;;;6.65;1.30;;;;;;;15.03;100.00;93143.28;5099677;28;20114;-89
2022/11/17 09:50:33;;;;;;;3.72;1.70;;;;;;;14.93;100.00;93128.63;5118909;28;20036;-89
2022/11/17 09:53:10;;;;;;;7.93;1.30;;;;;;;14.82;100.00;93131.66;5100083;28;20076;-88
2022/11/17 09:55:41;;;;;;;4.57;1.40;;;;;;;14.78;100.00;93130.00;5100835;28;20034;-88
2022/11/17 09:58:28;;;;;;;10.00;1.58;;;;;;;14.91;100.00;93133.44;5100721;28;20045;-90
2022/11/17 10:00:54;;;;;;;9.73;1.85;;;;;;;14.92;100.00;93135.75;5100183;28;20114;-88
2022/11/17 10:03:28;;;;;;;5.15;2.00;;;;;;;14.60;100.00;93129.34;5119202;28;20065;-90
2022/11/17 10:05:54;;;;;;;2.58;1.52;;;;;;;14.92;100.00;93129.69;5100307;28;20031;-89
2022/11/17 10:08:41;;;;;;;5.75;1.35;;;;;;;15.01;100.00;93140.19;5100553;28;20031;-89
2022/11/17 10:11:30;;;;;;;4.03;1.50;;;;;;;14.89;100.00;93139.06;5100146;28;20066;-89
2022/11/17 10:14:02;;;;;;;1.52;1.10;;;;;;;14.98;100.00;93134.44;5085873;28;20023;-88
2022/11/17 10:16:30;;;;;;;6.35;1.50;;;;;;;15.17;100.00;93141.13;5100029;28;20046;-89
2022/11/17 10:18:56;;;;;;;7.07;0.82;;;;;;;15.30;100.00;93126.06;5085912;28;20152;-88
2022/11/17 10:21:22;;;;;;;6.15;1.38;;;;;;;15.63;100.00;93109.38;5097020;28;20067;-89
2022/11/17 10:24:07;;;;;;;4.25;1.40;;;;;;;15.83;100.00;93101.69;5083921;28;20068;-89
2022/11/17 10:26:47;;;;;;;6.90;1.80;;;;;;;15.32;100.00;93099.38;5083687;28;20024;-88
2022/11/17 10:29:13;;;;;;;6.68;0.93;;;;;;;15.52;100.00;93087.94;5100167;28;20019;-88
2022/11/17 10:31:41;;;;;;;5.32;1.67;;;;;;;15.71;100.00;93070.81;5099721;28;20424;-88
2022/11/17 10:34:09;;;;;;;6.50;1.65;;;;;;;15.83;100.00;93067.38;5099129;28;20058;-88
2022/11/17 10:36:46;;;;;;;3.63;1.85;;;;;;;15.70;100.00;93063.94;5099463;28;20034;-87
2022/11/17 10:39:35;;;;;;;7.03;1.60;;;;;;;15.28;100.00;93070.22;5082749;28;20119;-88
2022/11/17 10:42:15;;;;;;;5.63;1.40;;;;;;;15.64;100.00;93058.16;5062827;28;20024;-88
2022/11/17 10:44:42;;;;;;;4.78;1.42;;;;;;;15.69;100.00;93054.50;5080208;28;20089;-87
2022/11/17 10:47:37;;;;;;;4.22;1.70;;;;;;;15.87;100.00;93055.03;5079701;28;20031;-88
2022/11/17 10:50:21;;;;;;;2.75;0.98;;;;;;;16.01;100.00;93056.56;5079633;28;20023;-86
2022/11/17 10:52:48;;;;;;;5.53;1.30;;;;;;;16.02;100.00;93066.03;5097353;28;20027;-86
2022/11/17 10:55:28;;;;;;;3.63;0.90;;;;;;;16.19;100.00;93057.84;5079430;28;20024;-87
2022/11/17 10:58:04;;;;;;;3.40;1.35;;;;;;;16.40;100.00;93062.97;5079133;28;20077;-87
2022/11/17 11:00:37;;;;;;;3.40;1.00;;;;;;;16.14;100.00;93059.94;5062394;28;20339;-87
2022/11/17 11:03:17;;;;;;;1.77;1.00;;;;;;;16.47;100.00;93067.69;5100089;28;20960;-88
2022/11/17 11:06:01;;;;;;;2.65;1.15;;;;;;;16.68;100.00;93067.47;5099270;28;20055;-87
2022/11/17 11:08:35;;;;;;;2.30;0.88;;;;;;;16.92;100.00;93067.69;5099290;28;20424;-88
2022/11/17 11:11:05;;;;;;;7.88;0.75;;;;;;;16.90;95.95;93061.97;5117243;28;20331;-87
2022/11/17 11:13:44;;;;;;;6.03;0.85;;;;;;;17.12;97.13;93065.97;5099517;28;20023;-87
2022/11/17 11:16:10;;;;;;;5.90;0.95;;;;;;;17.22;98.24;93054.13;5099463;28;20027;-88
2022/11/17 11:18:39;;;;;;;2.95;0.98;;;;;;;17.07;94.90;93066.22;5117357;28;20085;-87
2022/11/17 11:21:17;;;;;;;3.40;0.80;;;;;;;17.65;89.93;93057.78;5082587;28;20420;-86
2022/11/17 11:24:01;;;;;;;1.98;0.68;;;;;;;18.11;94.40;93061.81;5098998;28;20027;-87
2022/11/17 11:27:01;;;;;;;2.67;0.55;;;;;;;17.63;90.81;93067.19;5117134;28;20032;-88
2022/11/17 11:29:31;;;;;;;4.35;1.15;;;;;;;16.61;100.00;93069.16;5099295;28;20445;-87
2022/11/17 11:32:18;;;;;;;5.38;0.77;;;;;;;17.29;100.00;93072.06;5099250;28;20103;-88
2022/11/17 11:34:44;;;;;;;3.30;0.77;;;;;;;17.53;88.09;93068.47;5117089;28;20317;-87
2022/11/17 11:37:11;;;;;;;3.22;0.82;;;;;;;17.45;90.14;93066.75;5098869;28;20039;-89
2022/11/17 11:39:52;;;;;;;1.35;0.80;;;;;;;17.33;100.00;93054.38;5082384;28;20031;-87
2022/11/17 11:42:38;;;;;;;2.20;0.70;;;;;;;17.70;89.47;93055.97;5098461;28;20076;-88
2022/11/17 11:45:32;;;;;;;4.10;0.80;;;;;;;17.86;98.21;93061.22;5082769;28;20053;-88
2022/11/17 11:48:15;;;;;;;3.47;0.63;;;;;;;18.23;89.97;93056.38;5103384;28;20066;-88
2022/11/17 11:50:51;;;;;;;6.57;1.20;;;;;;;18.20;90.13;93062.38;5121140;28;20028;-87
2022/11/17 11:53:44;;;;;;;1.63;0.85;;;;;;;17.47;92.96;93048.63;5076985;28;20607;-85
2022/11/17 11:56:21;;;;;;;2.55;0.82;;;;;;;17.85;92.83;93057.03;5099996;28;20337;-86
2022/11/17 11:58:56;;;;;;;0.98;0.40;;;;;;;17.24;92.45;93043.97;5082753;28;20020;-87
2022/11/17 12:01:35;;;;;;;2.42;0.70;;;;;;;17.95;91.37;93030.03;5099255;28;20027;-87
2022/11/17 12:04:23;;;;;;;3.85;0.88;;;;;;;17.46;95.96;93028.56;5102333;28;20034;-87
2022/11/17 12:07:05;;;;;;;2.97;1.40;;;;;;;17.70;100.00;93038.19;5102785;28;20126;-87
2022/11/17 12:09:48;;;;;;;2.80;2.10;;;;;;;17.49;100.00;93038.47;5120822;28;20033;-86
2022/11/17 12:12:18;;;;;;;4.38;2.25;;;;;;;17.67;100.00;93034.38;5102284;28;20050;-87
2022/11/17 12:15:10;;;;;;;6.32;2.30;;;;;;;16.98;100.00;93047.06;5086389;28;20034;-87
2022/11/17 12:17:37;;;;;;;7.38;2.47;;;;;;;17.06;100.00;93043.53;5083996;28;20081;-87
2022/11/17 12:20:11;;;;;;;7.82;2.28;;;;;;;16.80;100.00;93048.16;5102268;28;20447;-87
2022/11/17 12:22:56;;;;;;;4.07;2.35;;;;;;;17.16;100.00;93045.66;5102710;28;20413;-87
2022/11/17 12:25:29;;;;;;;3.25;1.92;;;;;;;17.74;100.00;93051.50;5102542;28;20055;-87
2022/11/17 12:27:55;;;;;;;4.87;2.37;;;;;;;17.77;100.00;93034.94;5102314;28;20023;-86
2022/11/17 12:30:29;;;;;;;11.80;4.20;;;;;;;17.50;100.00;93050.59;5102444;28;20382;-85
2022/11/17 12:32:56;;;;;;;7.82;4.63;;;;;;;17.63;100.00;93052.03;5120437;28;20347;-86
2022/11/17 12:35:28;;;;;;;15.45;4.03;;;;;;;17.27;100.00;93042.50;5085352;28;20037;-85
2022/11/17 12:38:12;;;;;;;8.10;4.37;;;;;;;16.87;100.00;93044.94;5085479;28;20035;-85
2022/11/17 12:40:38;;;;;;;6.38;3.90;;;;;;;16.97;100.00;93043.66;5119769;28;20039;-85
2022/11/17 12:43:15;;;;;;;9.07;3.88;;;;;;;16.26;100.00;93052.00;5120081;28;20031;-86
2022/11/17 12:46:03;;;;;;;9.48;3.63;;;;;;;16.44;100.00;93051.75;5101867;28;20040;-86
2022/11/17 12:48:35;;;;;;;5.50;3.35;;;;;;;16.67;100.00;93052.72;5084827;28;20034;-87
2022/11/17 12:51:24;;;;;;;6.28;4.00;;;;;;;16.44;100.00;93049.84;5101700;28;20415;-85
2022/11/17 12:54:20;;;;;;;8.98;4.13;;;;;;;15.76;100.00;93044.16;5112449;28;20046;-85
2022/11/17 12:57:53;;;;;;;6.82;3.85;;;;;;;16.63;100.00;93048.44;5118548;28;20023;-86
2022/11/17 13:00:19;;;;;;;6.88;3.92;;;;;;;16.52;100.00;93048.94;5113907;28;20028;-86
2022/11/17 13:02:58;;;;;;;9.23;3.60;;;;;;;16.34;100.00;93056.38;5119173;28;20019;-84
2022/11/17 13:05:28;;;;;;;9.23;3.35;;;;;;;16.37;100.00;93054.97;5118634;28;20036;-85